createdAt,value
2023-06-15T00:01:17.803Z,20.16
2023-06-15T00:03:46.157Z,20.19
2023-06-15T00:06:14.265Z,20.19
2023-06-15T00:08:42.690Z,20.05
2023-06-15T00:11:12.108Z,20.02
2023-06-15T00:13:40.090Z,20.05
2023-06-15T00:16:08.081Z,20.03
2023-06-15T00:18:38.942Z,20.07
2023-06-15T00:21:09.663Z,19.98
2023-06-15T00:23:37.647Z,19.98
2023-06-15T00:26:05.711Z,20.05
2023-06-15T00:28:35.001Z,19.93
2023-06-15T00:31:02.939Z,19.77
2023-06-15T00:33:30.921Z,19.86
2023-06-15T00:36:00.596Z,19.81
2023-06-15T00:38:28.668Z,19.60
2023-06-15T00:40:56.630Z,19.71
2023-06-15T00:43:24.599Z,19.72
2023-06-15T00:45:53.941Z,19.72
2023-06-15T00:48:22.068Z,19.77
2023-06-15T00:50:50.027Z,19.77
2023-06-15T00:53:17.945Z,19.57
2023-06-15T00:55:46.230Z,19.55
2023-06-15T00:58:14.207Z,19.61
2023-06-15T01:00:42.596Z,19.55
2023-06-15T01:03:13.932Z,19.29
2023-06-15T01:05:45.745Z,19.43
2023-06-15T01:08:15.545Z,19.35
2023-06-15T01:10:44.874Z,19.00
2023-06-15T01:13:13.950Z,19.16
2023-06-15T01:15:42.826Z,19.27
2023-06-15T01:18:20.412Z,19.33
2023-06-15T01:20:49.620Z,19.19
2023-06-15T01:23:27.120Z,19.32
2023-06-15T01:26:18.628Z,19.32
2023-06-15T01:28:48.899Z,19.36
2023-06-15T01:31:17.961Z,19.29
2023-06-15T01:33:47.512Z,19.17
2023-06-15T01:36:16.028Z,19.23
2023-06-15T01:38:46.060Z,19.23
2023-06-15T01:41:14.749Z,19.18
2023-06-15T01:43:44.181Z,19.16
2023-06-15T01:46:12.485Z,19.12
2023-06-15T01:48:40.997Z,19.16
2023-06-15T01:51:08.982Z,19.10
2023-06-15T01:53:37.225Z,18.98
2023-06-15T01:56:05.643Z,18.97
2023-06-15T01:58:33.641Z,18.91
2023-06-15T02:01:03.009Z,18.91
2023-06-15T02:03:32.591Z,18.86
2023-06-15T02:06:00.538Z,18.88
2023-06-15T02:08:28.512Z,18.82
2023-06-15T02:10:56.488Z,18.89
2023-06-15T02:13:24.390Z,18.81
2023-06-15T02:15:52.313Z,18.75
2023-06-15T02:18:22.330Z,18.69
2023-06-15T02:20:51.285Z,18.44
2023-06-15T02:23:20.965Z,18.63
2023-06-15T02:25:48.921Z,18.72
2023-06-15T02:28:17.113Z,18.79
2023-06-15T02:30:45.240Z,18.78
2023-06-15T02:33:14.249Z,18.73
2023-06-15T02:35:43.623Z,18.78
2023-06-15T02:38:11.605Z,18.74
2023-06-15T02:40:39.549Z,18.79
2023-06-15T02:43:07.501Z,18.73
2023-06-15T02:45:35.692Z,18.53
2023-06-15T02:48:03.635Z,18.49
2023-06-15T02:50:31.559Z,18.44
2023-06-15T02:53:00.909Z,18.50
2023-06-15T02:55:28.815Z,18.60
2023-06-15T02:57:57.008Z,18.44
2023-06-15T03:00:24.999Z,18.42
2023-06-15T03:02:53.683Z,18.46
2023-06-15T03:05:21.971Z,18.34
2023-06-15T03:07:49.871Z,18.42
2023-06-15T03:10:19.198Z,18.43
2023-06-15T03:12:47.303Z,18.54
2023-06-15T03:15:16.214Z,18.27
2023-06-15T03:17:44.435Z,18.47
2023-06-15T03:20:13.220Z,18.46
2023-06-15T03:22:41.834Z,18.50
2023-06-15T03:25:12.554Z,18.32
2023-06-15T03:27:44.332Z,18.15
2023-06-15T03:30:13.460Z,18.25
2023-06-15T03:32:41.748Z,18.15
2023-06-15T03:35:11.333Z,18.35
2023-06-15T03:37:39.261Z,18.41
2023-06-15T03:40:09.083Z,18.47
2023-06-15T03:42:36.998Z,18.44
2023-06-15T03:45:07.722Z,18.44
2023-06-15T03:47:35.821Z,18.35
2023-06-15T03:50:03.884Z,18.31
2023-06-15T03:52:33.861Z,18.32
2023-06-15T03:55:02.118Z,18.55
2023-06-15T03:57:30.192Z,18.58
2023-06-15T03:59:58.147Z,18.52
2023-06-15T04:02:27.543Z,18.44
2023-06-15T04:04:56.589Z,18.45
2023-06-15T04:07:25.538Z,18.53
2023-06-15T04:09:53.499Z,18.50
2023-06-15T04:12:21.653Z,18.49
2023-06-15T04:14:49.615Z,18.56
2023-06-15T04:17:17.777Z,18.77
2023-06-15T04:19:47.127Z,18.92
2023-06-15T04:22:15.675Z,19.05
2023-06-15T04:24:43.622Z,19.02
2023-06-15T04:27:13.680Z,19.07
2023-06-15T04:29:46.695Z,19.18
2023-06-15T04:32:15.578Z,19.25
2023-06-15T04:34:46.858Z,19.36
2023-06-15T04:37:18.208Z,19.47
2023-06-15T04:39:46.394Z,19.36
2023-06-15T04:42:14.307Z,19.42
2023-06-15T04:44:42.271Z,19.64
2023-06-15T04:47:10.309Z,19.74
2023-06-15T04:49:38.261Z,19.86
2023-06-15T04:52:08.892Z,19.97
2023-06-15T04:54:38.518Z,19.94
2023-06-15T04:57:10.064Z,20.46
2023-06-15T04:59:39.708Z,20.72
2023-06-15T05:02:08.927Z,20.37
2023-06-15T05:04:37.198Z,20.36
2023-06-15T05:07:05.501Z,20.43
2023-06-15T05:09:33.516Z,20.55
2023-06-15T05:12:03.255Z,20.63
2023-06-15T05:14:31.225Z,20.50
2023-06-15T05:17:04.336Z,20.25
2023-06-15T05:19:32.597Z,20.39
2023-06-15T05:22:01.650Z,20.51
2023-06-15T05:24:30.070Z,20.77
2023-06-15T05:26:58.821Z,21.05
2023-06-15T05:29:28.123Z,21.21
2023-06-15T05:31:57.206Z,21.32
2023-06-15T05:34:25.206Z,21.37
2023-06-15T05:36:57.627Z,21.22
2023-06-15T05:39:27.070Z,21.19
2023-06-15T05:41:55.112Z,21.33
2023-06-15T05:44:23.284Z,21.06
2023-06-15T05:46:54.311Z,21.03
2023-06-15T05:49:22.490Z,20.99
2023-06-15T05:51:50.421Z,21.15
2023-06-15T05:54:18.365Z,21.15
2023-06-15T05:56:46.354Z,21.42
2023-06-15T05:59:31.046Z,21.21
2023-06-15T06:02:02.349Z,21.62
2023-06-15T06:04:30.953Z,21.78
2023-06-15T06:06:59.193Z,21.68
2023-06-15T06:09:27.263Z,21.42
2023-06-15T06:11:55.276Z,21.49
2023-06-15T06:14:23.265Z,21.21
2023-06-15T06:16:51.297Z,21.30
2023-06-15T06:19:20.586Z,21.46
2023-06-15T06:21:48.596Z,21.51
2023-06-15T06:24:17.669Z,21.68
2023-06-15T06:26:46.588Z,21.71
2023-06-15T06:29:14.525Z,21.84
2023-06-15T06:31:44.118Z,22.05
2023-06-15T06:34:13.008Z,21.65
2023-06-15T06:36:42.619Z,21.80
2023-06-15T06:39:10.551Z,21.73
2023-06-15T06:41:38.523Z,21.78
2023-06-15T06:44:06.814Z,21.89
2023-06-15T06:46:34.769Z,21.99
2023-06-15T06:49:02.864Z,22.15
2023-06-15T06:51:30.898Z,22.20
2023-06-15T06:54:01.604Z,22.28
2023-06-15T06:56:29.605Z,22.36
2023-06-15T06:58:57.632Z,22.60
2023-06-15T07:01:26.583Z,22.65
2023-06-15T07:03:57.656Z,22.65
2023-06-15T07:06:25.980Z,22.74
2023-06-15T07:08:53.966Z,22.77
2023-06-15T07:11:23.283Z,22.71
2023-06-15T07:13:51.203Z,22.64
2023-06-15T07:16:19.125Z,22.74
2023-06-15T07:18:47.091Z,22.77
2023-06-15T07:21:15.122Z,22.78
2023-06-15T07:23:52.378Z,22.38
2023-06-15T07:26:23.454Z,22.60
2023-06-15T07:28:51.725Z,22.32
2023-06-15T07:31:19.775Z,22.73
2023-06-15T07:33:47.725Z,22.94
2023-06-15T07:36:15.712Z,23.23
2023-06-15T07:38:43.689Z,23.44
2023-06-15T07:41:11.708Z,23.52
2023-06-15T07:43:41.014Z,23.44
2023-06-15T07:46:08.999Z,23.03
2023-06-15T07:48:36.904Z,23.21
2023-06-15T07:51:05.026Z,23.30
2023-06-15T07:53:33.067Z,23.47
2023-06-15T07:56:01.060Z,23.78
2023-06-15T07:58:28.976Z,23.87
2023-06-15T08:00:58.329Z,23.81
2023-06-15T08:03:26.369Z,23.66
2023-06-15T08:05:54.414Z,23.62
2023-06-15T08:08:22.997Z,23.77
2023-06-15T08:10:51.154Z,23.79
2023-06-15T08:13:22.000Z,23.49
2023-06-15T08:15:50.270Z,23.75
2023-06-15T08:18:19.656Z,24.05
2023-06-15T08:20:47.838Z,24.31
2023-06-15T08:23:16.602Z,24.38
2023-06-15T08:25:44.948Z,24.21
2023-06-15T08:28:12.881Z,24.08
2023-06-15T08:30:40.894Z,24.22
2023-06-15T08:33:08.991Z,24.21
2023-06-15T08:35:38.527Z,24.28
2023-06-15T08:38:06.537Z,24.40
2023-06-15T08:40:34.493Z,24.42
2023-06-15T08:43:04.924Z,24.50
2023-06-15T08:45:40.847Z,24.64
2023-06-15T08:48:10.390Z,24.62
2023-06-15T08:50:42.698Z,24.70
2023-06-15T08:53:15.222Z,24.80
2023-06-15T08:55:43.859Z,24.85
2023-06-15T08:58:12.361Z,24.81
2023-06-15T09:00:40.485Z,24.81
2023-06-15T09:03:10.991Z,24.89
2023-06-15T09:05:40.451Z,24.95
2023-06-15T09:08:08.909Z,24.99
2023-06-15T09:10:39.506Z,25.07
2023-06-15T09:13:07.537Z,25.10
2023-06-15T09:15:35.791Z,25.12
2023-06-15T09:18:04.556Z,24.94
2023-06-15T09:20:34.095Z,25.00
2023-06-15T09:23:05.894Z,25.08
2023-06-15T09:25:34.662Z,25.19
2023-06-15T09:28:03.876Z,24.81
2023-06-15T09:30:34.114Z,24.64
2023-06-15T09:33:02.398Z,24.49
2023-06-15T09:35:30.306Z,24.15
2023-06-15T09:37:58.347Z,24.42
2023-06-15T09:40:29.896Z,24.44
2023-06-15T09:42:58.187Z,24.67
2023-06-15T09:45:26.428Z,24.82
2023-06-15T09:47:58.701Z,24.85
2023-06-15T09:50:31.398Z,25.00
2023-06-15T09:53:00.556Z,25.08
2023-06-15T09:55:30.873Z,25.18
2023-06-15T09:57:59.056Z,25.12
2023-06-15T10:00:27.313Z,25.31
2023-06-15T10:02:58.917Z,25.43
2023-06-15T10:05:33.708Z,25.45
2023-06-15T10:08:05.814Z,25.36
2023-06-15T10:10:38.539Z,25.34
2023-06-15T10:13:09.706Z,25.23
2023-06-15T10:15:38.779Z,25.28
2023-06-15T10:18:11.591Z,25.27
2023-06-15T10:20:39.604Z,25.09
2023-06-15T10:23:10.788Z,25.15
2023-06-15T10:25:42.415Z,25.11
2023-06-15T10:28:12.687Z,25.12
2023-06-15T10:30:48.192Z,25.12
2023-06-15T10:33:23.244Z,25.04
2023-06-15T10:36:06.264Z,24.94
2023-06-15T10:38:50.565Z,24.75
2023-06-15T10:41:20.956Z,24.46
2023-06-15T10:43:59.323Z,24.35
2023-06-15T10:46:31.319Z,24.09
2023-06-15T10:49:05.569Z,24.03
2023-06-15T10:51:37.188Z,23.94
2023-06-15T10:54:06.247Z,23.82
2023-06-15T10:56:35.615Z,23.85
2023-06-15T10:59:05.888Z,23.77
2023-06-15T11:01:35.057Z,23.61
2023-06-15T11:04:12.258Z,23.61
2023-06-15T11:06:40.277Z,23.45
2023-06-15T11:09:09.993Z,23.36
2023-06-15T11:11:40.739Z,23.24
2023-06-15T11:14:09.964Z,23.30
2023-06-15T11:16:46.227Z,23.21
2023-06-15T11:19:26.003Z,23.22
2023-06-15T11:22:06.743Z,23.25
2023-06-15T11:24:39.275Z,23.17
2023-06-15T11:27:10.658Z,23.07
2023-06-15T11:29:41.809Z,22.99
2023-06-15T11:32:12.497Z,22.87
2023-06-15T11:34:42.175Z,22.77
2023-06-15T11:37:14.525Z,22.77
2023-06-15T11:39:45.932Z,22.50
2023-06-15T11:42:14.065Z,22.46
2023-06-15T11:44:43.072Z,22.40
2023-06-15T11:47:12.939Z,22.29
2023-06-15T11:49:41.884Z,22.10
2023-06-15T11:52:10.281Z,22.12
2023-06-15T11:54:50.536Z,22.13
2023-06-15T11:57:21.632Z,22.10
2023-06-15T11:59:49.843Z,22.02
2023-06-15T12:02:19.201Z,22.11
2023-06-15T12:04:49.261Z,21.90
2023-06-15T12:07:36.336Z,22.08
2023-06-15T12:10:07.871Z,22.07
2023-06-15T12:12:37.398Z,22.09
2023-06-15T12:15:07.502Z,21.80
2023-06-15T12:17:39.006Z,21.98
2023-06-15T12:20:11.021Z,22.14
2023-06-15T12:22:51.440Z,22.32
2023-06-15T12:25:19.450Z,22.38
2023-06-15T12:27:51.808Z,22.50
2023-06-15T12:30:22.081Z,22.35
2023-06-15T12:32:51.968Z,22.39
2023-06-15T12:35:33.427Z,22.49
2023-06-15T12:38:01.790Z,22.50
2023-06-15T12:40:29.771Z,22.57
2023-06-15T12:42:59.077Z,22.70
2023-06-15T12:45:27.564Z,22.84
2023-06-15T12:47:58.130Z,22.92
2023-06-15T12:50:26.459Z,22.85
2023-06-15T12:52:56.614Z,22.97
2023-06-15T12:55:24.974Z,23.01
2023-06-15T12:57:55.542Z,22.93
2023-06-15T13:00:26.121Z,22.98
2023-06-15T13:02:54.646Z,23.09
2023-06-15T13:05:24.583Z,23.08
2023-06-15T13:07:52.963Z,23.00
2023-06-15T13:10:21.433Z,23.15
2023-06-15T13:12:49.585Z,23.17
2023-06-15T13:15:20.688Z,23.15
2023-06-15T13:17:49.470Z,23.08
2023-06-15T13:20:18.345Z,23.11
2023-06-15T13:22:48.909Z,23.17
2023-06-15T13:25:17.156Z,23.39
2023-06-15T13:27:45.197Z,23.61
2023-06-15T13:30:15.097Z,23.82
2023-06-15T13:32:44.953Z,23.93
2023-06-15T13:35:13.078Z,23.80
2023-06-15T13:37:42.370Z,23.80
2023-06-15T13:40:12.656Z,23.88
2023-06-15T13:42:42.465Z,24.08
2023-06-15T13:45:12.343Z,24.02
2023-06-15T13:47:42.406Z,24.19
2023-06-15T13:50:13.734Z,24.21
2023-06-15T13:52:43.814Z,24.14
2023-06-15T13:55:13.380Z,24.30
2023-06-15T13:57:41.991Z,24.34
2023-06-15T14:00:10.722Z,24.25
2023-06-15T14:02:38.790Z,24.33
2023-06-15T14:05:07.672Z,24.33
2023-06-15T14:07:38.582Z,24.27
2023-06-15T14:10:07.761Z,24.22
2023-06-15T14:12:37.526Z,24.24
2023-06-15T14:15:10.355Z,24.36
2023-06-15T14:17:38.751Z,24.44
2023-06-15T14:20:07.979Z,24.39
2023-06-15T14:22:36.012Z,24.34
2023-06-15T14:25:03.991Z,24.38
2023-06-15T14:27:31.968Z,24.29
2023-06-15T14:30:01.301Z,24.24
2023-06-15T14:32:29.432Z,24.10
2023-06-15T14:34:57.435Z,24.07
2023-06-15T14:37:25.400Z,24.21
2023-06-15T14:39:53.353Z,24.20
2023-06-15T14:42:21.685Z,24.31
2023-06-15T14:44:49.735Z,24.21
2023-06-15T14:47:19.269Z,24.43
2023-06-15T14:49:47.180Z,24.49
2023-06-15T14:52:15.215Z,24.33
2023-06-15T14:54:43.338Z,24.32
2023-06-15T14:57:12.861Z,24.39
2023-06-15T14:59:41.290Z,24.45
2023-06-15T15:02:09.277Z,24.43
2023-06-15T15:04:38.668Z,24.66
2023-06-15T15:07:06.674Z,24.88
2023-06-15T15:09:34.700Z,24.76
2023-06-15T15:12:02.688Z,24.82
2023-06-15T15:14:30.947Z,24.80
2023-06-15T15:16:59.140Z,24.72
2023-06-15T15:19:27.192Z,24.62
2023-06-15T15:21:56.480Z,24.48
2023-06-15T15:24:24.459Z,24.48
2023-06-15T15:26:52.350Z,24.55
2023-06-15T15:29:20.610Z,24.45
2023-06-15T15:31:48.629Z,24.42
2023-06-15T15:34:16.864Z,24.51
2023-06-15T15:36:46.036Z,24.62
2023-06-15T15:39:15.452Z,24.72
2023-06-15T15:41:43.918Z,24.76
2023-06-15T15:44:11.920Z,24.72
2023-06-15T15:46:39.964Z,24.62
2023-06-15T15:49:08.229Z,24.62
2023-06-15T15:51:36.683Z,24.69
2023-06-15T15:54:04.972Z,24.77
2023-06-15T15:56:34.364Z,24.86
2023-06-15T15:59:02.391Z,24.77
2023-06-15T16:01:30.411Z,24.82
2023-06-15T16:03:58.727Z,24.70
2023-06-15T16:06:26.754Z,24.31
2023-06-15T16:08:54.690Z,24.45
2023-06-15T16:11:23.743Z,24.42
2023-06-15T16:13:53.156Z,24.35
2023-06-15T16:16:28.899Z,24.33
2023-06-15T16:18:57.561Z,24.32
2023-06-15T16:21:26.036Z,24.38
2023-06-15T16:23:54.247Z,24.35
2023-06-15T16:26:22.289Z,24.39
2023-06-15T16:28:50.223Z,24.40
2023-06-15T16:31:19.672Z,24.30
2023-06-15T16:33:47.559Z,24.39
2023-06-15T16:36:17.540Z,24.32
2023-06-15T16:38:45.842Z,24.34
2023-06-15T16:41:13.880Z,24.27
2023-06-15T16:43:42.956Z,24.28
2023-06-15T16:46:11.188Z,24.19
2023-06-15T16:48:40.541Z,24.18
2023-06-15T16:51:08.576Z,24.17
2023-06-15T16:53:36.522Z,24.19
2023-06-15T16:56:04.812Z,24.22
2023-06-15T16:58:32.707Z,24.27
2023-06-15T17:01:00.905Z,24.20
2023-06-15T17:03:29.206Z,24.33
2023-06-15T17:05:58.657Z,24.27
2023-06-15T17:08:26.602Z,24.29
2023-06-15T17:10:55.389Z,24.31
2023-06-15T17:13:23.356Z,24.20
2023-06-15T17:15:51.319Z,24.27
2023-06-15T17:18:19.332Z,24.24
2023-06-15T17:20:47.233Z,24.29
2023-06-15T17:23:16.979Z,24.25
2023-06-15T17:25:44.859Z,24.24
2023-06-15T17:28:14.821Z,24.25
2023-06-15T17:30:43.181Z,24.18
2023-06-15T17:33:11.191Z,24.19
2023-06-15T17:35:39.118Z,24.17
2023-06-15T17:38:09.349Z,24.14
2023-06-15T17:40:38.677Z,24.13
2023-06-15T17:43:06.666Z,24.10
2023-06-15T17:45:34.583Z,24.05
2023-06-15T17:48:02.822Z,24.07
2023-06-15T17:50:30.848Z,24.07
2023-06-15T17:52:58.810Z,24.04
2023-06-15T17:55:26.777Z,24.00
2023-06-15T17:57:56.092Z,23.99
2023-06-15T18:00:23.980Z,24.01
2023-06-15T18:02:52.047Z,23.95
2023-06-15T18:05:20.384Z,23.85
2023-06-15T18:07:48.555Z,23.88
2023-06-15T18:10:16.671Z,23.81
2023-06-15T18:12:44.880Z,23.83
2023-06-15T18:15:14.511Z,23.82
2023-06-15T18:17:42.443Z,23.83
2023-06-15T18:20:11.052Z,23.80
2023-06-15T18:22:39.155Z,23.75
2023-06-15T18:25:08.007Z,23.57
2023-06-15T18:27:35.994Z,23.62
2023-06-15T18:30:08.666Z,23.63
2023-06-15T18:32:38.420Z,23.64
2023-06-15T18:35:07.252Z,23.59
2023-06-15T18:37:37.881Z,23.54
2023-06-15T18:40:06.773Z,23.56
2023-06-15T18:42:37.754Z,23.53
2023-06-15T18:45:06.719Z,23.55
2023-06-15T18:47:35.195Z,23.49
2023-06-15T18:50:06.071Z,23.52
2023-06-15T18:52:34.145Z,23.56
2023-06-15T18:55:02.318Z,23.57
2023-06-15T18:57:30.236Z,23.56
2023-06-15T18:59:58.182Z,23.52
2023-06-15T19:02:26.249Z,23.52
2023-06-15T19:04:54.263Z,23.50
2023-06-15T19:07:23.575Z,23.48
2023-06-15T19:09:51.724Z,23.47
2023-06-15T19:12:19.744Z,23.45
2023-06-15T19:14:47.805Z,23.46
2023-06-15T19:17:16.025Z,23.44
2023-06-15T19:19:43.938Z,23.33
2023-06-15T19:22:11.912Z,23.19
2023-06-15T19:24:44.589Z,23.26
2023-06-15T19:27:13.386Z,23.15
2023-06-15T19:29:41.707Z,23.24
2023-06-15T19:32:09.639Z,23.24
2023-06-15T19:34:37.572Z,23.16
2023-06-15T19:37:06.093Z,23.14
2023-06-15T19:39:33.986Z,23.03
2023-06-15T19:42:03.478Z,23.03
2023-06-15T19:44:31.483Z,22.96
2023-06-15T19:46:59.488Z,22.94
2023-06-15T19:49:29.896Z,22.83
2023-06-15T19:51:59.427Z,22.78
2023-06-15T19:54:30.558Z,22.70
2023-06-15T19:56:58.548Z,22.65
2023-06-15T19:59:27.883Z,22.58
2023-06-15T20:01:57.404Z,22.46
2023-06-15T20:04:25.441Z,22.42
2023-06-15T20:06:53.374Z,22.24
2023-06-15T20:09:21.330Z,22.23
2023-06-15T20:11:51.461Z,22.13
2023-06-15T20:14:19.452Z,22.16
2023-06-15T20:16:48.870Z,22.09
2023-06-15T20:19:19.510Z,22.02
2023-06-15T20:21:47.494Z,22.17
2023-06-15T20:24:15.449Z,22.26
2023-06-15T20:26:43.597Z,22.27
2023-06-15T20:29:11.553Z,22.30
2023-06-15T20:31:40.268Z,22.28
2023-06-15T20:34:10.020Z,22.34
2023-06-15T20:36:43.427Z,22.32
2023-06-15T20:39:12.279Z,22.23
2023-06-15T20:41:40.449Z,22.13
2023-06-15T20:44:08.492Z,22.22
2023-06-15T20:46:36.818Z,22.22
2023-06-15T20:49:04.974Z,22.05
2023-06-15T20:51:34.373Z,22.09
2023-06-15T20:54:02.397Z,22.07
2023-06-15T20:56:30.371Z,21.95
2023-06-15T20:58:58.268Z,21.90
2023-06-15T21:01:26.377Z,21.79
2023-06-15T21:03:54.546Z,21.85
2023-06-15T21:06:22.511Z,21.80
2023-06-15T21:08:53.061Z,21.72
2023-06-15T21:11:21.143Z,21.66
2023-06-15T21:13:50.745Z,21.49
2023-06-15T21:16:18.995Z,21.67
2023-06-15T21:18:46.944Z,21.70
2023-06-15T21:21:14.872Z,21.66
2023-06-15T21:23:45.429Z,21.55
2023-06-15T21:26:14.895Z,21.16
2023-06-15T21:28:42.860Z,21.50
2023-06-15T21:31:10.786Z,21.55
2023-06-15T21:33:38.777Z,21.48
2023-06-15T21:36:07.542Z,21.50
2023-06-15T21:38:35.507Z,21.48
2023-06-15T21:41:04.189Z,21.45
2023-06-15T21:43:33.488Z,21.49
2023-06-15T21:46:01.417Z,21.46
2023-06-15T21:48:29.724Z,21.28
2023-06-15T21:53:25.609Z,21.34
2023-06-15T21:55:53.602Z,21.32
2023-06-15T21:58:21.514Z,21.43
2023-06-15T22:00:51.258Z,21.44
2023-06-15T22:03:19.259Z,21.43
2023-06-15T22:05:48.934Z,21.46
2023-06-15T22:08:17.307Z,21.43
2023-06-15T22:10:45.281Z,21.40
2023-06-15T22:13:16.853Z,21.45
2023-06-15T22:15:44.889Z,21.49
2023-06-15T22:18:14.258Z,21.48
2023-06-15T22:20:43.161Z,21.42
2023-06-15T22:23:11.276Z,21.31
2023-06-15T22:25:51.270Z,21.33
2023-06-15T22:28:22.859Z,21.18
2023-06-15T22:30:51.500Z,21.35
2023-06-15T22:33:24.333Z,21.40
2023-06-15T22:35:52.741Z,21.37
2023-06-15T22:38:20.857Z,21.23
2023-06-15T22:40:48.777Z,21.14
2023-06-15T22:43:16.794Z,21.18
2023-06-15T22:45:44.750Z,21.24
2023-06-15T22:48:12.740Z,21.14
2023-06-15T22:50:42.080Z,20.93
2023-06-15T22:53:13.937Z,20.96
2023-06-15T22:55:41.976Z,20.97
2023-06-15T22:58:09.933Z,20.81
2023-06-15T23:00:37.894Z,20.98
2023-06-15T23:03:06.336Z,20.90
2023-06-15T23:05:35.289Z,20.87
2023-06-15T23:08:05.108Z,20.92
2023-06-15T23:10:37.204Z,21.01
2023-06-15T23:13:05.235Z,20.95
2023-06-15T23:15:33.651Z,20.87
2023-06-15T23:18:03.447Z,20.78
2023-06-15T23:20:33.117Z,20.54
2023-06-15T23:23:01.032Z,20.28
2023-06-15T23:25:30.323Z,20.39
2023-06-15T23:28:00.869Z,20.21
2023-06-15T23:30:31.088Z,20.26
2023-06-15T23:32:59.062Z,20.21
2023-06-15T23:35:27.031Z,20.26
2023-06-15T23:37:54.907Z,20.21
2023-06-15T23:40:22.898Z,20.07
2023-06-15T23:42:52.286Z,20.01
2023-06-15T23:45:20.586Z,20.01
2023-06-15T23:47:48.962Z,19.89
2023-06-15T23:50:17.397Z,19.54
2023-06-15T23:52:45.590Z,19.40
2023-06-15T23:55:13.566Z,19.33
2023-06-15T23:57:41.503Z,19.44
